Main page
METAR-TAF:

METAR-TAF

Airports :

Bad Vöslau Airport

Bad Vöslau, Austria

latitude: 47-57-52N, longitude: 016-15-34E, elevation: 233 m

Current weather observation

The report was made 1 hour and 2 minutes ago, at 08:00 UTC
Wind 2 kt from variable directions
Temperature 0°C
Humidity 74%
Pressure
Visibility: 7000 m
Broken clouds at a height of 7000 ft

METAR: LOAV 180800Z VRB02KT 7000 BKN070 00/M04

Time: 10:02 (09:02 UTC)

Forecast

The report was made 1 hour and 2 minutes ago, at 08:00 UTC
Forecast valid from 18 at 09 UTC to 18 at 18 UTC
Wind 4 kt from the Northeast
Visibility: 9000 m
Broken clouds at a height of 7000 ft

TAF: LOAV 180800Z 1809/1818 04004KT 9000 BKN070

Weather observations and forecasts of more than 4000 airports (METAR and TAF reports).

The available stations are represented by yellow and red dots on the map.

Hover mouse over dot to see the name of the station.

Then click to see weather observations and forecasts.

To change the map : click on the green buttons with a black cross to zoom in, on the green button with a dash to zoom out, or on the green arrows for adjacent maps.


METAR-TAF: